Wilson Algeciras — 9HA2471 — position and weather

sailwx.info

Track history (hours):
 
Tides and Currents Weather Stations Pressure Air Temp Water Temp Dewpoint Dewpoint Depression Visibility Wind Speed Wind Dir Waves Ship Positions

Wilson Algeciras

Last reported at 2015-Jun-26 14:27 UTC. Time now 2015-Jul-01 01:53 UTC.
Position N 63°06' E 007°41'.

Length 88 m; draft 4.3 m.

Type: Cargo ship. MMSI: 248689000.

Date/timePositionNaut miles runAvg speedWind from/ knotsBaromVisibWave heightAir tempDewpointWater temp
2015-Jun-26 14:27N 63°06' E 007°41'1 0.1
2015-Jun-26 01:07N 63°05' E 007°41'5 9.4
2015-Jun-26 00:32N 63°11' E 007°43'254 7.9
2015-Jun-24 16:33N 59°11' E 004°47'9 9.1
2015-Jun-24 15:34N 59°07' E 005°02'9 8.9
2015-Jun-24 14:33N 59°07' E 005°20'8 7.7
2015-Jun-24 13:33N 59°04' E 005°34'8 8.2
2015-Jun-24 12:34N 58°59' E 005°47'3 2.8
2015-Jun-24 11:33N 58°57' E 005°45'0 0.0
2015-Jun-24 10:33N 58°57' E 005°45'0 0.0
2015-Jun-24 09:33N 58°57' E 005°45'0 0.0
2015-Jun-24 08:33N 58°57' E 005°45'0 0.0
2015-Jun-24 07:33N 58°57' E 005°45'0 0.0
2015-Jun-24 06:33N 58°57' E 005°45'0 0.0
2015-Jun-24 05:33N 58°57' E 005°45'0 0.0
2015-Jun-24 04:33N 58°57' E 005°45'0 0.0
2015-Jun-24 03:33N 58°57' E 005°45'0 0.0
2015-Jun-24 02:33N 58°57' E 005°45'0 0.0
2015-Jun-24 01:33N 58°57' E 005°45'0 0.0
2015-Jun-24 00:33N 58°57' E 005°45'4 3.6
2015-Jun-23 23:33N 59°00' E 005°46'7 6.6
2015-Jun-23 22:33N 58°60' E 005°33'9 8.7
2015-Jun-23 21:33N 58°51' E 005°31'8 7.7
2015-Jun-23 20:34N 58°45' E 005°21'412 8.2
2015-Jun-21 18:33N 52°07' E 002°16'1611.4
2015-Jun-21 17:07N 51°51' E 002°08'611.5
2015-Jun-21 16:34N 51°45' E 002°05'1111.0
2015-Jun-21 15:33N 51°35' E 001°59'9 9.1
2015-Jun-21 14:33N 51°26' E 001°60'9 8.7
2015-Jun-21 13:33N 51°18' E 001°55'9 9.3
2015-Jun-21 12:33N 51°10' E 001°46'8 7.5
2015-Jun-21 11:33N 51°05' E 001°38'7 6.9
2015-Jun-21 10:34N 50°60' E 001°30'7 6.5
2015-Jun-21 09:32N 50°54' E 001°25'9 7.2
2015-Jun-21 08:13N 50°45' E 001°21'5 7.7
2015-Jun-21 07:33N 50°40' E 001°18'76 8.4
2015-Jun-20 22:29N 49°47' W 000°07'7 7.2
2015-Jun-20 21:33N 49°41' W 000°08'7 7.1
2015-Jun-20 20:33N 49°34' W 000°07'7 7.2
2015-Jun-20 19:33N 49°28' W 000°01'1010.5
2015-Jun-20 18:33N 49°26' E 000°15'1111.2
2015-Jun-20 17:33N 49°28' E 000°32'8 7.7
2015-Jun-20 16:29N 49°31' E 000°44'  
2015-Jun-16 21:33N 49°25' E 000°52'9 8.6
2015-Jun-16 20:33N 49°31' E 000°44'8 8.4
2015-Jun-16 19:33N 49°29' E 000°31'1212.1
2015-Jun-16 18:33N 49°26' E 000°13'1111.0
2015-Jun-16 17:33N 49°28' W 000°03'2 2.0
2015-Jun-16 16:31N 49°28' W 000°06'0 0.0
2015-Jun-16 15:31N 49°28' W 000°06'0 0.0
2015-Jun-16 14:31N 49°28' W 000°06'  
Track history (hours):
 
Tides and Currents Weather Stations Pressure Air Temp Water Temp Dewpoint Dewpoint Depression Visibility Wind Speed Wind Dir Waves Ship Positions

Wilson Algeciras

Last reported at 2015-Jun-26 14:27 UTC. Time now 2015-Jul-01 01:53 UTC.
Position N 63°06' E 007°41'.

Length 88 m; draft 4.3 m.

Type: Cargo ship. MMSI: 248689000.

Date/timePositionNaut miles runAvg speedWind from/ knotsBaromVisibWave heightAir tempDewpointWater temp
2015-Jun-26 14:27N 63°06' E 007°41'1 0.1
2015-Jun-26 01:07N 63°05' E 007°41'5 9.4
2015-Jun-26 00:32N 63°11' E 007°43'254 7.9
2015-Jun-24 16:33N 59°11' E 004°47'9 9.1
2015-Jun-24 15:34N 59°07' E 005°02'9 8.9
2015-Jun-24 14:33N 59°07' E 005°20'8 7.7
2015-Jun-24 13:33N 59°04' E 005°34'8 8.2
2015-Jun-24 12:34N 58°59' E 005°47'3 2.8
2015-Jun-24 11:33N 58°57' E 005°45'0 0.0
2015-Jun-24 10:33N 58°57' E 005°45'0 0.0
2015-Jun-24 09:33N 58°57' E 005°45'0 0.0
2015-Jun-24 08:33N 58°57' E 005°45'0 0.0
2015-Jun-24 07:33N 58°57' E 005°45'0 0.0
2015-Jun-24 06:33N 58°57' E 005°45'0 0.0
2015-Jun-24 05:33N 58°57' E 005°45'0 0.0
2015-Jun-24 04:33N 58°57' E 005°45'0 0.0
2015-Jun-24 03:33N 58°57' E 005°45'0 0.0
2015-Jun-24 02:33N 58°57' E 005°45'0 0.0
2015-Jun-24 01:33N 58°57' E 005°45'0 0.0
2015-Jun-24 00:33N 58°57' E 005°45'4 3.6
2015-Jun-23 23:33N 59°00' E 005°46'7 6.6
2015-Jun-23 22:33N 58°60' E 005°33'9 8.7
2015-Jun-23 21:33N 58°51' E 005°31'8 7.7
2015-Jun-23 20:34N 58°45' E 005°21'412 8.2
2015-Jun-21 18:33N 52°07' E 002°16'1611.4
2015-Jun-21 17:07N 51°51' E 002°08'611.5
2015-Jun-21 16:34N 51°45' E 002°05'1111.0
2015-Jun-21 15:33N 51°35' E 001°59'9 9.1
2015-Jun-21 14:33N 51°26' E 001°60'9 8.7
2015-Jun-21 13:33N 51°18' E 001°55'9 9.3
2015-Jun-21 12:33N 51°10' E 001°46'8 7.5
2015-Jun-21 11:33N 51°05' E 001°38'7 6.9
2015-Jun-21 10:34N 50°60' E 001°30'7 6.5
2015-Jun-21 09:32N 50°54' E 001°25'9 7.2
2015-Jun-21 08:13N 50°45' E 001°21'5 7.7
2015-Jun-21 07:33N 50°40' E 001°18'76 8.4
2015-Jun-20 22:29N 49°47' W 000°07'7 7.2
2015-Jun-20 21:33N 49°41' W 000°08'7 7.1
2015-Jun-20 20:33N 49°34' W 000°07'7 7.2
2015-Jun-20 19:33N 49°28' W 000°01'1010.5
2015-Jun-20 18:33N 49°26' E 000°15'1111.2
2015-Jun-20 17:33N 49°28' E 000°32'8 7.7
2015-Jun-20 16:29N 49°31' E 000°44'  
2015-Jun-16 21:33N 49°25' E 000°52'9 8.6
2015-Jun-16 20:33N 49°31' E 000°44'8 8.4
2015-Jun-16 19:33N 49°29' E 000°31'1212.1
2015-Jun-16 18:33N 49°26' E 000°13'1111.0
2015-Jun-16 17:33N 49°28' W 000°03'2 2.0
2015-Jun-16 16:31N 49°28' W 000°06'0 0.0
2015-Jun-16 15:31N 49°28' W 000°06'0 0.0
2015-Jun-16 14:31N 49°28' W 000°06'  

Dump ship's entire track history